Stations météo

Publicité
Wasserkuppe, Allemagne (10544): Température de l'air & dewpoint: 15.04.2018 13:00:00 - 21.04.2018 13:00:00 (CEST)Wasserkuppe, Allemagne (10544): Température de l'air 5cm & Température de l'air -5cm: 15.04.2018 13:00:00 - 21.04.2018 13:00:00 (CEST)Wasserkuppe, Allemagne (10544): Température de l'air -20cm & Température de l'air -100cm: 15.04.2018 13:00:00 - 21.04.2018 13:00:00 (CEST)Wasserkuppe, Allemagne (10544): Vitesse du vent & gusts: 15.04.2018 13:00:00 - 21.04.2018 13:00:00 (CEST)Wasserkuppe, Allemagne (10544): Direction du vent: 15.04.2018 13:00:00 - 21.04.2018 13:00:00 (CEST)Wasserkuppe, Allemagne (10544): visibility: 15.04.2018 13:00:00 - 21.04.2018 13:00:00 (CEST)Wasserkuppe, Allemagne (10544): Ensoleillement: 15.04.2018 13:00:00 - 21.04.2018 13:00:00 (CEST)Wasserkuppe, Allemagne (10544): Quantités de précipitations: 15.04.2018 13:00:00 - 21.04.2018 13:00:00 (CEST)
Date & Time tt [°C] td [°C] tt 5cm [°C] tt -5cm [°C] tt -20cm [°C] tt -100cm [°C] ff [km/h] ff [knt] fx [km/h] fx [knt] dd vv [km] sd [min] rr [mm]
21.04.2018 13:00:00 18,8 9,2 23,4 17,4 11,6 4,1 16 9 27 14 N 28 43 0,0
21.04.2018 12:00:00 18,9 9,3 22,8 15,8 11,7 4,1 10 6 19 11 NNW 30 60 0,0
21.04.2018 11:00:00 17,8 8,4 21,0 14,2 11,8 4,1 15 8 21 11 N 35 60 0,0
21.04.2018 10:00:00 17,7 7,9 20,1 12,8 11,9 4,0 12 6 17 9 N 30 60 0,0
21.04.2018 09:00:00 16,2 6,7 17,0 11,9 12,0 4,0 14 7 16 9 N 30 60 0,0
21.04.2018 08:00:00 15,9 6,4 14,9 11,6 12,2 4,0 10 5 14 8 N 29 60 0,0
21.04.2018 07:00:00 15,1 6,0 12,0 11,9 12,3 4,0 11 6 16 9 NNE 25 9 0,0
21.04.2018 06:00:00 14,7 6,2 11,6 12,2 12,4 4,0 13 7 22 12 NNE 35 0 0,0
21.04.2018 05:00:00 15,5 6,3 11,8 12,6 12,5 4,0 12 7 21 11 NNE 45 0 0,0
21.04.2018 04:00:00 15,6 5,5 11,9 13,1 12,7 4,0 11 6 16 9 N 50 0 0,0
21.04.2018 03:00:00 16,3 5,1 13,6 13,6 12,7 4,0 15 8 18 10 NNW 60 0 0,0
21.04.2018 02:00:00 15,8 6,9 11,8 14,2 12,8 4,0 8 5 11 6 WNW 60 0 0,0
21.04.2018 01:00:00 16,0 7,2 11,6 15,0 12,8 4,0 8 5 10 6 W 60 0 0,0
21.04.2018 00:00:00 15,5 6,2 12,0 15,8 12,8 4,0 9 5 16 8 WNW 60 0 0,0
20.04.2018 23:00:00 15,3 5,7 11,7 16,8 12,7 4,0 11 6 13 7 SSW 60 0 0,0
20.04.2018 22:00:00 15,5 5,4 11,7 18,0 12,6 3,9 10 5 13 7 SSW 60 0 0,0
20.04.2018 21:00:00 16,3 5,3 12,7 19,4 12,3 3,9 8 4 17 9 SSE 60 0 0,0
20.04.2018 20:00:00 17,5 5,9 14,6 20,8 12,1 3,9 15 8 19 10 S 70 59 0,0
20.04.2018 19:00:00 20,0 5,6 21,8 21,7 11,8 3,9 16 8 19 11 S 70 59 0,0
20.04.2018 18:00:00 21,6 4,5 24,3 22,2 11,5 3,9 15 8 24 13 S 70 60 0,0
20.04.2018 17:00:00 22,3 3,7 25,5 22,1 11,2 3,9 22 12 31 17 SSE 70 60 0,0
20.04.2018 16:00:00 22,3 6,2 26,9 21,6 10,9 3,9 20 11 32 17 SSE 65 60 0,0
20.04.2018 15:00:00 21,9 6,2 27,0 20,5 10,7 3,9 21 11 29 16 SSE 60 60 0,0
20.04.2018 14:00:00 21,4 4,9 26,1 18,9 10,6 3,9 19 10 29 15 S 60 60 0,0
20.04.2018 13:00:00 20,7 8,3 25,4 16,9 10,6 3,9 15 8 26 14 SSE 60 60 0,0
20.04.2018 12:00:00 19,9 8,0 22,8 14,8 10,6 3,8 19 10 31 17 SSE 60 60 0,0
20.04.2018 11:00:00 18,0 7,4 20,7 12,9 10,7 3,8 22 12 37 20 SSE 60 60 0,0
20.04.2018 10:00:00 17,0 7,0 19,4 11,3 10,8 3,8 24 13 31 17 SSE 60 60 0,0
20.04.2018 09:00:00 15,6 5,7 17,1 10,2 11,0 3,8 20 11 28 15 S 60 60 0,0
20.04.2018 08:00:00 14,2 5,6 13,5 9,9 11,1 3,8 21 11 30 16 S 60 60 0,0
20.04.2018 07:00:00 12,8 5,1 9,1 10,2 11,3 3,8 21 12 29 15 S 45 9 0,0
20.04.2018 06:00:00 12,4 5,1 6,9 10,7 11,4 3,8 18 10 29 16 SSE 45 0 0,0
20.04.2018 05:00:00 12,3 4,6 7,4 11,3 11,5 3,8 19 10 27 15 SSE 45 0 0,0
20.04.2018 04:00:00 13,0 4,6 11,1 11,9 11,6 3,8 24 13 40 21 SSE 40 0 0,0
20.04.2018 03:00:00 12,8 4,8 11,4 12,4 11,7 3,8 32 18 43 23 SE 40 0 0,0
20.04.2018 02:00:00 13,6 4,9 12,1 12,9 11,7 3,8 33 18 45 25 SE 40 0 0,0
20.04.2018 01:00:00 13,6 4,9 11,8 13,6 11,8 3,8 38 20 49 27 SE 40 0 0,0
20.04.2018 00:00:00 13,7 6,1 11,9 14,3 11,7 3,8 39 21 50 27 ESE 40 0 0,0
19.04.2018 23:00:00 14,0 4,3 12,0 15,3 11,7 3,8 37 20 44 24 ESE 45 0 0,0
19.04.2018 22:00:00 14,6 1,2 12,0 16,5 11,5 3,7 27 14 32 17 SE 70 0 0,0
19.04.2018 21:00:00 14,9 1,4 11,4 17,8 11,3 3,7 22 12 25 13 SE 70 0 0,0
19.04.2018 20:00:00 16,7 2,1 13,2 19,2 11,1 3,7 16 9 21 12 ESE 82 59 0,0
19.04.2018 19:00:00 19,8 2,7 19,4 20,2 10,8 3,7 13 7 24 13 ESE 82 60 0,0
19.04.2018 18:00:00 21,8 3,4 23,4 20,7 10,5 3,7 17 9 31 17 ESE 82 60 0,0
19.04.2018 17:00:00 22,3 2,1 24,3 20,6 10,2 3,7 17 9 31 17 SE 82 60 0,0
19.04.2018 16:00:00 22,5 0,7 26,1 19,9 10,0 3,7 21 12 31 17 ESE 82 60 0,0
19.04.2018 15:00:00 22,4 4,8 25,6 18,9 9,8 3,7 18 10 30 16 ESE 82 60 0,0
19.04.2018 14:00:00 21,3 0,9 25,4 17,4 9,7 3,7 18 10 28 15 ESE 75 60 0,0
19.04.2018 13:00:00 21,1 2,1 23,8 15,6 9,7 3,7 19 10 36 19 ESE 60 60 0,0
19.04.2018 12:00:00 20,3 2,1 21,0 13,9 9,7 3,6 21 11 35 19 SE 55 60 0,0
19.04.2018 11:00:00 19,2 5,1 19,4 12,2 9,8 3,6 26 14 37 20 SE 45 60 0,0
19.04.2018 10:00:00 17,4 4,2 18,0 10,5 9,9 3,6 26 14 41 22 SE 45 60 0,0
19.04.2018 09:00:00 15,4 3,2 15,5 9,4 10,0 3,6 31 17 41 22 SE 45 60 0,0
19.04.2018 08:00:00 13,4 2,4 12,7 8,9 10,2 3,6 29 15 41 22 SE 45 60 0,0
19.04.2018 07:00:00 11,7 1,2 10,4 9,1 10,3 3,6 35 19 42 23 SE 45 14 0,0
19.04.2018 06:00:00 10,6 2,0 8,9 9,6 10,4 3,6 35 19 40 21 ESE 45 0 0,0
19.04.2018 05:00:00 11,8 2,2 9,7 10,1 10,5 3,6 30 16 45 24 ESE 45 0 0,0
19.04.2018 04:00:00 12,0 2,4 10,3 10,5 10,6 3,6 38 21 61 33 ESE 45 0 0,0
19.04.2018 03:00:00 13,1 1,3 11,7 11,0 10,7 3,6 44 24 54 29 ESE 50 0 0,0
19.04.2018 02:00:00 12,5 3,6 11,2 11,6 10,8 3,6 40 22 48 26 ESE 50 0 0,0
19.04.2018 01:00:00 12,6 4,8 11,0 12,2 10,8 3,6 37 20 42 23 ESE 55 0 0,0
19.04.2018 00:00:00 12,9 4,9 10,9 13,0 10,8 3,6 29 16 36 19 ESE 60 0 0,0
18.04.2018 23:00:00 14,1 4,9 9,8 13,9 10,7 3,6 16 9 20 11 ESE 60 0 0,0
18.04.2018 22:00:00 14,3 5,1 10,5 15,0 10,5 3,6 18 10 20 11 ESE 60 0 0,0
18.04.2018 21:00:00 15,2 4,8 9,4 16,2 10,3 3,5 12 7 14 8 ESE 60 0 0,0
18.04.2018 20:00:00 16,3 4,3 13,3 17,3 10,1 3,5 11 6 14 8 ESE 70 60 0,0
18.04.2018 19:00:00 19,0 4,0 17,9 18,1 9,8 3,5 11 6 18 10 ESE 70 59 0,0
18.04.2018 18:00:00 20,1 2,4 20,4 18,6 9,5 3,5 12 6 22 12 SE 70 60 0,0
18.04.2018 17:00:00 19,9 2,7 21,6 18,6 9,3 3,5 9 5 20 11 E 70 60 0,0
18.04.2018 16:00:00 20,5 5,7 22,0 18,2 9,1 3,5 9 5 27 14 E 70 60 0,0
18.04.2018 15:00:00 19,6 4,5 22,8 17,2 8,9 3,5 8 5 20 11 ESE 70 60 0,0
18.04.2018 14:00:00 19,2 6,0 22,4 15,8 8,8 3,5 10 5 19 10 SE 60 60 0,0
18.04.2018 13:00:00 18,9 5,5 21,7 14,2 8,7 3,5 7 4 24 13 S 55 60 0,0
18.04.2018 12:00:00 17,3 3,4 19,7 12,8 8,7 3,5 13 7 23 12 N 55 60 0,0
18.04.2018 11:00:00 16,3 3,7 18,3 11,1 8,8 3,5 8 4 17 9 NNE 55 60 0,0
18.04.2018 10:00:00 15,6 4,5 17,0 9,4 8,9 3,4 9 5 13 7 N 45 60 0,0
18.04.2018 09:00:00 14,4 3,8 15,2 7,9 9,1 3,4 4 2 5 3 WSW 45 60 0,0
18.04.2018 08:00:00 12,7 5,0 11,6 7,2 9,2 3,4 4 2 6 3 SSW 40 60 0,0
18.04.2018 07:00:00 10,4 3,7 7,0 7,3 9,4 3,4 6 4 8 4 SSW 45 13 0,0
18.04.2018 06:00:00 9,8 3,2 6,2 7,7 9,5 3,4 8 4 9 5 SW 50 0 0,0
18.04.2018 05:00:00 9,8 3,3 6,5 8,2 9,6 3,4 8 5 10 6 SW 50 0 0,0
18.04.2018 04:00:00 10,1 3,9 6,4 8,7 9,7 3,4 7 4 9 5 S 50 0 0,0
18.04.2018 03:00:00 10,2 3,0 5,6 9,2 9,8 3,4 8 5 9 5 S 60 0 0,0
18.04.2018 02:00:00 10,1 3,4 6,6 9,9 9,9 3,4 8 5 11 6 SW 55 0 0,0
18.04.2018 01:00:00 10,0 3,5 7,3 10,6 9,9 3,4 9 5 11 6 SSW 60 0 0,0
18.04.2018 00:00:00 10,6 3,3 7,6 11,3 9,9 3,4 6 3 8 4 S 55 0 0,0
17.04.2018 23:00:00 11,0 3,4 7,6 12,2 9,8 3,4 5 3 5 3 SSW 55 0 0,0
17.04.2018 22:00:00 11,7 2,7 8,4 13,2 9,7 3,4 6 3 10 5 NW 50 0 0,0
17.04.2018 21:00:00 12,3 3,9 9,1 14,2 9,6 3,4 8 4 10 5 WNW 50 0 0,0
17.04.2018 20:00:00 13,5 4,2 11,9 15,3 9,3 3,3 8 4 14 8 W 50 24 0,0
17.04.2018 19:00:00 15,4 4,3 14,7 16,2 9,1 3,3 8 4 14 8 WSW 45 60 0,0
17.04.2018 18:00:00 16,2 4,4 17,1 16,7 8,9 3,3 8 5 24 13 WSW 45 60 0,0
17.04.2018 17:00:00 16,6 4,7 18,3 16,6 8,7 3,3 7 4 21 11 SW 40 60 0,0
17.04.2018 16:00:00 16,5 4,1 19,1 16,0 8,5 3,3 6 3 21 12 NW 35 60 0,0
17.04.2018 15:00:00 16,2 5,3 17,6 14,8 8,4 3,3 11 6 21 12 SW 25 57 0,0
17.04.2018 14:00:00 15,1 5,9 17,0 13,5 8,3 3,3 11 6 25 13 WSW 15 47 0,0
17.04.2018 13:00:00 14,6 6,0 17,1 11,9 8,3 3,3 9 5 21 11 W 15 41 0,0
17.04.2018 12:00:00 12,2 5,1 12,3 11,3 8,3 3,3 7 4 12 6 W 15 9 0,0
17.04.2018 11:00:00 13,4 4,7 16,8 10,0 8,4 3,3 8 4 24 13 NW 18 25 0,0
17.04.2018 10:00:00 12,3 5,8 13,0 8,9 8,5 3,3 9 5 20 11 SSE 18 24 0,0
17.04.2018 09:00:00 11,2 6,1 11,1 7,9 8,6 3,3 15 8 19 11 ESE 18 58 0,0
17.04.2018 08:00:00 9,4 5,9 9,1 7,4 8,7 3,3 12 6 16 9 E 15 40 0,0
17.04.2018 07:00:00 8,2 5,8 6,7 7,5 8,8 3,2 12 7 17 9 E 15 0 0,0
17.04.2018 06:00:00 8,0 6,4 6,7 7,6 9,0 3,2 11 6 17 9 ENE 15 0 0,0
17.04.2018 05:00:00 7,9 5,1 5,6 7,9 9,1 3,2 13 7 16 9 NE 24 0 0,0
17.04.2018 04:00:00 7,7 4,5 6,0 8,2 9,2 3,2 13 7 17 9 NNE 24 0 0,0
17.04.2018 03:00:00 8,2 4,6 6,0 8,7 9,2 3,2 13 7 18 10 NE 24 0 0,0
17.04.2018 02:00:00 8,2 4,9 6,1 9,2 9,3 3,2 12 7 25 14 NNE 24 0 0,0
17.04.2018 01:00:00 8,3 5,6 6,2 9,7 9,4 3,2 18 10 29 15 N 22 0 0,0
17.04.2018 00:00:00 9,0 6,4 7,6 10,2 9,4 3,2 20 11 27 14 NNW 23 0 0,0
16.04.2018 23:00:00 9,4 6,3 8,1 10,8 9,4 3,2 21 11 26 14 N 30 0 0,0
16.04.2018 22:00:00 9,7 6,0 8,0 11,5 9,3 3,2 17 9 20 11 N 45 0 0,0
16.04.2018 21:00:00 9,9 5,9 7,6 12,5 9,2 3,2 14 8 22 12 N 45 0 0,0
16.04.2018 20:00:00 10,6 6,1 8,9 13,6 9,0 3,2 16 9 22 12 N 50 52 0,0
16.04.2018 19:00:00 11,9 6,5 12,4 14,3 8,9 3,1 18 10 29 16 N 50 53 0,0
16.04.2018 18:00:00 13,2 5,3 13,2 14,8 8,7 3,1 18 10 28 15 WNW 50 34 0,0
16.04.2018 17:00:00 14,8 5,4 17,0 14,8 8,6 3,1 13 7 28 15 W 50 34 0,0
16.04.2018 16:00:00 13,9 3,1 15,2 14,2 8,5 3,1 11 6 24 13 NW 45 57 0,0
16.04.2018 15:00:00 14,3 6,0 16,8 13,2 8,4 3,1 10 6 18 10 NW 45 48 0,0
16.04.2018 14:00:00 12,3 5,9 14,2 12,3 8,4 3,1 10 5 22 12 WNW 30 30 0,0
16.04.2018 13:00:00 11,4 7,1 14,8 11,5 8,4 3,1 14 7 22 12 N 25 11 0,0
16.04.2018 12:00:00 11,1 8,2 13,2 10,5 8,4 3,1 16 9 24 13 N 12 31 0,0
16.04.2018 11:00:00 10,3 8,2 11,2 9,8 8,4 3,1 15 8 23 13 NNW 8 1 0,0
16.04.2018 10:00:00 9,8 8,1 10,2 9,3 8,5 3,1 19 10 23 12 N 10 0 0,0
16.04.2018 09:00:00 9,2 8,2 9,1 8,9 8,6 3,1 14 8 22 12 NNW 3,0 0 0,0
16.04.2018 08:00:00 8,8 8,0 8,4 8,9 8,6 3,1 18 10 23 12 N 2,5 0 0,0
16.04.2018 07:00:00 8,8 8,0 8,3 9,0 8,7 3,1 17 9 21 11 N 2,5 0 0,0
16.04.2018 06:00:00 8,9 7,7 8,2 9,1 8,8 3,0 13 7 18 10 NNW 10 0 0,0
16.04.2018 05:00:00 9,0 7,3 8,3 9,3 8,8 3,0 15 8 17 9 N 15 0 0,0
16.04.2018 04:00:00 9,3 6,8 8,2 9,6 8,9 3,0 13 7 19 11 N 25 0 0,0
16.04.2018 03:00:00 9,4 7,1 8,4 9,8 8,9 3,0 11 6 18 10 NW 25 0 0,1
16.04.2018 02:00:00 11,4 5,7 9,9 10,0 8,9 3,0 5 3 9 5 NNE 30 0 0,0
16.04.2018 01:00:00 11,6 5,4 10,2 10,3 8,9 3,0 7 4 10 6 NNE 35 0 0,0
16.04.2018 00:00:00 11,4 5,5 8,8 10,7 8,9 3,0 9 5 11 6 ENE 45 0 0,0
15.04.2018 23:00:00 11,4 5,5 9,9 11,3 8,9 3,0 10 5 18 10 N 50 0 0,0
15.04.2018 22:00:00 11,3 5,7 9,7 12,0 8,8 3,0 15 8 18 10 N 50 0 0,0
15.04.2018 21:00:00 11,5 5,7 10,1 12,9 8,6 3,0 12 7 15 8 NNW 50 0 0,0
15.04.2018 20:00:00 12,6 5,9 11,3 13,7 8,5 3,0 10 6 13 7 N 60 0 0,0
15.04.2018 19:00:00 14,0 5,8 13,6 14,2 8,3 2,9 7 4 11 6 N 70 32 0,0
15.04.2018 18:00:00 14,7 5,7 15,1 14,5 8,0 2,9 6 3 13 7 N 82 33 0,0
15.04.2018 17:00:00 13,9 5,9 14,8 14,8 7,8 2,9 9 5 16 8 NW 82 5 0,0
15.04.2018 16:00:00 14,1 6,1 15,3 14,9 7,6 2,9 7 4 16 9 NW 82 22 0,0
15.04.2018 15:00:00 15,3 6,7 18,0 14,2 7,5 2,9 11 6 17 9 W 82 60 0,0
15.04.2018 14:00:00 15,4 6,2 18,6 12,7 7,5 2,9 11 6 35 19 W 82 60 0,0
15.04.2018 13:00:00 14,9 2,8 16,8 11,1 7,5 2,9 7 4 19 11 SE 80 58 0,0

tt = Température de l'air
td = dewpoint
tt 5cm = Température de l'air 5cm
tt -5cm = Température de l'air -5cm
tt -20cm = Température de l'air -20cm
tt -100cm = Température de l'air -100cm
ff = Vitesse du vent
fx = gusts
dd = Direction du vent
vv = visibility
sd = Ensoleillement
rr = Quantités de précipitations

stations d'obs. à proximité